sensor_id;sensor_type;location;lat;lon;timestamp;temperature;humidity
18101;DHT22;9177;49.156;8.142;2023-04-15T00:01:51;19.70;90.10
18101;DHT22;9177;49.156;8.142;2023-04-15T00:04:18;19.70;90.10
18101;DHT22;9177;49.156;8.142;2023-04-15T00:06:50;19.70;90.10
18101;DHT22;9177;49.156;8.142;2023-04-15T00:09:18;19.70;90.10
18101;DHT22;9177;49.156;8.142;2023-04-15T00:11:45;19.70;90.10
18101;DHT22;9177;49.156;8.142;2023-04-15T00:14:12;19.70;90.10
18101;DHT22;9177;49.156;8.142;2023-04-15T00:16:39;19.70;90.10
18101;DHT22;9177;49.156;8.142;2023-04-15T00:19:06;19.60;90.00
18101;DHT22;9177;49.156;8.142;2023-04-15T00:21:33;19.70;90.00
18101;DHT22;9177;49.156;8.142;2023-04-15T00:24:01;19.70;90.00
18101;DHT22;9177;49.156;8.142;2023-04-15T00:26:28;19.60;90.00
18101;DHT22;9177;49.156;8.142;2023-04-15T00:28:55;19.60;90.00
18101;DHT22;9177;49.156;8.142;2023-04-15T00:31:22;19.60;90.00
18101;DHT22;9177;49.156;8.142;2023-04-15T00:33:49;19.60;90.00
18101;DHT22;9177;49.156;8.142;2023-04-15T00:36:16;19.60;90.00
18101;DHT22;9177;49.156;8.142;2023-04-15T00:38:44;19.60;90.00
18101;DHT22;9177;49.156;8.142;2023-04-15T00:41:12;19.60;89.90
18101;DHT22;9177;49.156;8.142;2023-04-15T00:43:39;19.60;89.90
18101;DHT22;9177;49.156;8.142;2023-04-15T00:46:07;19.60;89.90
18101;DHT22;9177;49.156;8.142;2023-04-15T00:48:35;19.60;89.90
18101;DHT22;9177;49.156;8.142;2023-04-15T00:51:03;19.60;89.90
18101;DHT22;9177;49.156;8.142;2023-04-15T00:53:30;19.60;89.80
18101;DHT22;9177;49.156;8.142;2023-04-15T00:55:57;19.60;89.80
18101;DHT22;9177;49.156;8.142;2023-04-15T00:58:28;19.50;89.80
18101;DHT22;9177;49.156;8.142;2023-04-15T01:00:55;19.50;89.70
18101;DHT22;9177;49.156;8.142;2023-04-15T01:03:22;19.50;89.60
18101;DHT22;9177;49.156;8.142;2023-04-15T01:05:49;19.50;89.70
18101;DHT22;9177;49.156;8.142;2023-04-15T01:08:17;19.50;89.70
18101;DHT22;9177;49.156;8.142;2023-04-15T01:10:44;19.50;89.60
18101;DHT22;9177;49.156;8.142;2023-04-15T01:13:11;19.50;89.70
18101;DHT22;9177;49.156;8.142;2023-04-15T01:15:39;19.50;89.60
18101;DHT22;9177;49.156;8.142;2023-04-15T01:18:07;19.50;89.60
18101;DHT22;9177;49.156;8.142;2023-04-15T01:20:34;19.50;89.70
18101;DHT22;9177;49.156;8.142;2023-04-15T01:23:01;19.50;89.60
18101;DHT22;9177;49.156;8.142;2023-04-15T01:25:32;19.50;89.60
18101;DHT22;9177;49.156;8.142;2023-04-15T01:28:00;19.50;89.60
18101;DHT22;9177;49.156;8.142;2023-04-15T01:30:27;19.50;89.60
18101;DHT22;9177;49.156;8.142;2023-04-15T01:32:54;19.50;89.60
18101;DHT22;9177;49.156;8.142;2023-04-15T01:35:22;19.50;89.60
18101;DHT22;9177;49.156;8.142;2023-04-15T01:37:49;19.50;89.60
18101;DHT22;9177;49.156;8.142;2023-04-15T01:40:16;19.50;89.60
18101;DHT22;9177;49.156;8.142;2023-04-15T01:42:44;19.50;89.50
18101;DHT22;9177;49.156;8.142;2023-04-15T01:45:11;19.50;89.50
18101;DHT22;9177;49.156;8.142;2023-04-15T01:47:38;19.50;89.50
18101;DHT22;9177;49.156;8.142;2023-04-15T01:50:05;19.50;89.50
18101;DHT22;9177;49.156;8.142;2023-04-15T01:52:33;19.50;89.40
18101;DHT22;9177;49.156;8.142;2023-04-15T01:54:59;19.50;89.40
18101;DHT22;9177;49.156;8.142;2023-04-15T01:57:26;19.50;89.40
18101;DHT22;9177;49.156;8.142;2023-04-15T01:59:54;19.40;89.30
18101;DHT22;9177;49.156;8.142;2023-04-15T02:02:21;19.40;89.30
18101;DHT22;9177;49.156;8.142;2023-04-15T02:04:48;19.40;89.30
18101;DHT22;9177;49.156;8.142;2023-04-15T02:07:15;19.40;89.30
18101;DHT22;9177;49.156;8.142;2023-04-15T02:09:43;19.40;89.20
18101;DHT22;9177;49.156;8.142;2023-04-15T02:12:10;19.40;89.30
18101;DHT22;9177;49.156;8.142;2023-04-15T02:14:37;19.40;89.20
18101;DHT22;9177;49.156;8.142;2023-04-15T02:17:06;19.40;89.20
18101;DHT22;9177;49.156;8.142;2023-04-15T02:19:33;19.40;90.00
18101;DHT22;9177;49.156;8.142;2023-04-15T02:22:00;19.40;89.20
18101;DHT22;9177;49.156;8.142;2023-04-15T02:24:28;19.40;89.20
18101;DHT22;9177;49.156;8.142;2023-04-15T02:26:55;19.40;89.10
18101;DHT22;9177;49.156;8.142;2023-04-15T02:29:22;19.40;89.10
18101;DHT22;9177;49.156;8.142;2023-04-15T02:31:49;19.40;90.00
18101;DHT22;9177;49.156;8.142;2023-04-15T02:34:17;19.40;89.10
18101;DHT22;9177;49.156;8.142;2023-04-15T02:36:44;19.40;89.10
18101;DHT22;9177;49.156;8.142;2023-04-15T02:39:13;19.40;89.10
18101;DHT22;9177;49.156;8.142;2023-04-15T02:41:41;19.40;89.10
18101;DHT22;9177;49.156;8.142;2023-04-15T02:44:12;19.40;89.10
18101;DHT22;9177;49.156;8.142;2023-04-15T02:46:38;19.30;89.00
18101;DHT22;9177;49.156;8.142;2023-04-15T02:49:06;19.40;89.10
18101;DHT22;9177;49.156;8.142;2023-04-15T02:51:34;19.30;89.00
18101;DHT22;9177;49.156;8.142;2023-04-15T02:54:01;19.30;89.00
18101;DHT22;9177;49.156;8.142;2023-04-15T02:56:28;19.30;89.00
18101;DHT22;9177;49.156;8.142;2023-04-15T02:58:55;19.30;89.00
18101;DHT22;9177;49.156;8.142;2023-04-15T03:01:23;19.30;88.90
18101;DHT22;9177;49.156;8.142;2023-04-15T03:03:50;19.30;89.00
18101;DHT22;9177;49.156;8.142;2023-04-15T03:06:17;19.30;89.00
18101;DHT22;9177;49.156;8.142;2023-04-15T03:08:45;19.30;89.00
18101;DHT22;9177;49.156;8.142;2023-04-15T03:11:13;19.30;88.90
18101;DHT22;9177;49.156;8.142;2023-04-15T03:13:40;19.30;89.00
18101;DHT22;9177;49.156;8.142;2023-04-15T03:16:07;19.30;88.90
18101;DHT22;9177;49.156;8.142;2023-04-15T03:18:35;19.30;88.90
18101;DHT22;9177;49.156;8.142;2023-04-15T03:21:02;19.30;88.90
18101;DHT22;9177;49.156;8.142;2023-04-15T03:23:30;19.30;88.90
18101;DHT22;9177;49.156;8.142;2023-04-15T03:26:00;19.30;88.90
18101;DHT22;9177;49.156;8.142;2023-04-15T03:28:27;19.30;88.90
18101;DHT22;9177;49.156;8.142;2023-04-15T03:30:54;19.30;88.90
18101;DHT22;9177;49.156;8.142;2023-04-15T03:33:21;19.30;88.90
18101;DHT22;9177;49.156;8.142;2023-04-15T03:35:49;19.30;88.90
18101;DHT22;9177;49.156;8.142;2023-04-15T03:38:16;19.30;88.90
18101;DHT22;9177;49.156;8.142;2023-04-15T03:40:45;19.30;88.90
18101;DHT22;9177;49.156;8.142;2023-04-15T03:43:13;19.30;88.90
18101;DHT22;9177;49.156;8.142;2023-04-15T03:45:41;19.30;88.90
18101;DHT22;9177;49.156;8.142;2023-04-15T03:48:07;19.30;89.70
18101;DHT22;9177;49.156;8.142;2023-04-15T03:50:34;19.20;88.80
18101;DHT22;9177;49.156;8.142;2023-04-15T03:53:01;19.20;88.80
18101;DHT22;9177;49.156;8.142;2023-04-15T03:55:28;19.30;88.90
18101;DHT22;9177;49.156;8.142;2023-04-15T03:57:55;19.20;88.80
18101;DHT22;9177;49.156;8.142;2023-04-15T04:00:23;19.20;88.80
18101;DHT22;9177;49.156;8.142;2023-04-15T04:02:50;19.20;88.80
18101;DHT22;9177;49.156;8.142;2023-04-15T04:05:17;19.20;88.80
18101;DHT22;9177;49.156;8.142;2023-04-15T04:07:43;19.20;88.80
18101;DHT22;9177;49.156;8.142;2023-04-15T04:10:10;19.30;88.80
18101;DHT22;9177;49.156;8.142;2023-04-15T04:12:37;19.40;89.20
18101;DHT22;9177;49.156;8.142;2023-04-15T04:15:04;19.50;88.90
18101;DHT22;9177;49.156;8.142;2023-04-15T04:17:34;19.70;88.50
18101;DHT22;9177;49.156;8.142;2023-04-15T04:20:01;20.00;88.20
18101;DHT22;9177;49.156;8.142;2023-04-15T04:22:28;20.20;87.60
18101;DHT22;9177;49.156;8.142;2023-04-15T04:24:55;20.40;87.00
18101;DHT22;9177;49.156;8.142;2023-04-15T04:27:24;20.60;86.50
18101;DHT22;9177;49.156;8.142;2023-04-15T04:29:51;20.80;86.30
18101;DHT22;9177;49.156;8.142;2023-04-15T04:32:17;20.90;85.80
18101;DHT22;9177;49.156;8.142;2023-04-15T04:34:46;21.00;85.40
18101;DHT22;9177;49.156;8.142;2023-04-15T04:37:13;21.10;85.10
18101;DHT22;9177;49.156;8.142;2023-04-15T04:39:39;21.20;84.90
18101;DHT22;9177;49.156;8.142;2023-04-15T04:42:06;21.30;84.70
18101;DHT22;9177;49.156;8.142;2023-04-15T04:44:33;21.30;84.60
18101;DHT22;9177;49.156;8.142;2023-04-15T04:47:00;21.40;84.40
18101;DHT22;9177;49.156;8.142;2023-04-15T04:49:27;21.40;84.30
18101;DHT22;9177;49.156;8.142;2023-04-15T04:51:55;21.40;84.10
18101;DHT22;9177;49.156;8.142;2023-04-15T04:54:23;21.40;84.10
18101;DHT22;9177;49.156;8.142;2023-04-15T04:56:49;21.40;84.10
18101;DHT22;9177;49.156;8.142;2023-04-15T04:59:16;21.30;84.10
18101;DHT22;9177;49.156;8.142;2023-04-15T05:01:43;21.30;84.10
18101;DHT22;9177;49.156;8.142;2023-04-15T05:04:10;21.20;84.20
18101;DHT22;9177;49.156;8.142;2023-04-15T05:06:37;21.10;84.30
18101;DHT22;9177;49.156;8.142;2023-04-15T05:09:05;21.10;84.40
18101;DHT22;9177;49.156;8.142;2023-04-15T05:11:32;21.00;84.60
18101;DHT22;9177;49.156;8.142;2023-04-15T05:13:59;20.90;84.70
18101;DHT22;9177;49.156;8.142;2023-04-15T05:16:27;20.90;84.90
18101;DHT22;9177;49.156;8.142;2023-04-15T05:18:56;20.80;85.00
18101;DHT22;9177;49.156;8.142;2023-04-15T05:21:23;20.80;85.20
18101;DHT22;9177;49.156;8.142;2023-04-15T05:23:50;20.70;85.30
18101;DHT22;9177;49.156;8.142;2023-04-15T05:26:18;20.60;85.40
18101;DHT22;9177;49.156;8.142;2023-04-15T05:28:46;20.60;85.50
18101;DHT22;9177;49.156;8.142;2023-04-15T05:31:13;20.50;85.70
18101;DHT22;9177;49.156;8.142;2023-04-15T05:33:40;20.50;85.80
18101;DHT22;9177;49.156;8.142;2023-04-15T05:36:06;20.40;85.80
18101;DHT22;9177;49.156;8.142;2023-04-15T05:38:34;20.40;85.90
18101;DHT22;9177;49.156;8.142;2023-04-15T05:41:00;20.40;86.00
18101;DHT22;9177;49.156;8.142;2023-04-15T05:43:29;20.30;86.10
18101;DHT22;9177;49.156;8.142;2023-04-15T05:45:56;20.30;86.20
18101;DHT22;9177;49.156;8.142;2023-04-15T05:48:23;20.20;86.40
18101;DHT22;9177;49.156;8.142;2023-04-15T05:50:49;20.20;86.40
18101;DHT22;9177;49.156;8.142;2023-04-15T05:53:16;20.10;86.50
18101;DHT22;9177;49.156;8.142;2023-04-15T05:55:43;20.10;86.50
18101;DHT22;9177;49.156;8.142;2023-04-15T05:58:10;20.10;86.50
18101;DHT22;9177;49.156;8.142;2023-04-15T06:00:38;20.10;86.60
18101;DHT22;9177;49.156;8.142;2023-04-15T06:03:05;20.00;86.70
18101;DHT22;9177;49.156;8.142;2023-04-15T06:05:32;20.00;86.70
18101;DHT22;9177;49.156;8.142;2023-04-15T06:08:00;20.00;86.70
18101;DHT22;9177;49.156;8.142;2023-04-15T06:10:28;20.00;86.70
18101;DHT22;9177;49.156;8.142;2023-04-15T06:12:55;20.00;86.70
18101;DHT22;9177;49.156;8.142;2023-04-15T06:15:22;20.00;86.90
18101;DHT22;9177;49.156;8.142;2023-04-15T06:17:50;20.00;86.90
18101;DHT22;9177;49.156;8.142;2023-04-15T06:20:17;20.00;86.90
18101;DHT22;9177;49.156;8.142;2023-04-15T06:22:44;20.00;86.90
18101;DHT22;9177;49.156;8.142;2023-04-15T06:25:11;20.00;86.90
18101;DHT22;9177;49.156;8.142;2023-04-15T06:27:38;20.00;86.90
18101;DHT22;9177;49.156;8.142;2023-04-15T06:30:06;20.00;86.90
18101;DHT22;9177;49.156;8.142;2023-04-15T06:32:33;20.00;86.90
18101;DHT22;9177;49.156;8.142;2023-04-15T06:35:02;20.00;86.90
18101;DHT22;9177;49.156;8.142;2023-04-15T06:37:29;20.00;87.00
18101;DHT22;9177;49.156;8.142;2023-04-15T06:39:57;20.00;86.90
18101;DHT22;9177;49.156;8.142;2023-04-15T06:42:23;20.00;86.90
18101;DHT22;9177;49.156;8.142;2023-04-15T06:44:50;20.00;86.90
18101;DHT22;9177;49.156;8.142;2023-04-15T06:47:17;20.00;86.90
18101;DHT22;9177;49.156;8.142;2023-04-15T06:49:44;20.00;86.90
18101;DHT22;9177;49.156;8.142;2023-04-15T06:52:12;20.00;86.90
18101;DHT22;9177;49.156;8.142;2023-04-15T06:54:41;20.00;87.70
18101;DHT22;9177;49.156;8.142;2023-04-15T06:57:08;20.00;86.90
18101;DHT22;9177;49.156;8.142;2023-04-15T06:59:34;20.00;86.90
18101;DHT22;9177;49.156;8.142;2023-04-15T07:02:01;20.00;86.90
18101;DHT22;9177;49.156;8.142;2023-04-15T07:04:29;20.00;86.90
18101;DHT22;9177;49.156;8.142;2023-04-15T07:06:55;20.00;86.90
18101;DHT22;9177;49.156;8.142;2023-04-15T07:09:24;20.00;86.90
18101;DHT22;9177;49.156;8.142;2023-04-15T07:11:51;20.00;86.90
18101;DHT22;9177;49.156;8.142;2023-04-15T07:14:18;20.10;86.90
18101;DHT22;9177;49.156;8.142;2023-04-15T07:16:45;20.10;86.90
18101;DHT22;9177;49.156;8.142;2023-04-15T07:19:12;20.10;86.90
18101;DHT22;9177;49.156;8.142;2023-04-15T07:21:39;20.10;86.90
18101;DHT22;9177;49.156;8.142;2023-04-15T07:24:06;20.10;86.90
18101;DHT22;9177;49.156;8.142;2023-04-15T07:26:34;20.10;86.90
18101;DHT22;9177;49.156;8.142;2023-04-15T07:29:01;20.10;86.90
18101;DHT22;9177;49.156;8.142;2023-04-15T07:31:28;20.10;86.90
18101;DHT22;9177;49.156;8.142;2023-04-15T07:33:55;20.10;86.80
18101;DHT22;9177;49.156;8.142;2023-04-15T07:36:22;20.10;86.80
18101;DHT22;9177;49.156;8.142;2023-04-15T07:38:49;20.20;86.90
18101;DHT22;9177;49.156;8.142;2023-04-15T07:41:15;20.20;86.70
18101;DHT22;9177;49.156;8.142;2023-04-15T07:43:44;20.20;86.70
18101;DHT22;9177;49.156;8.142;2023-04-15T07:46:12;20.30;86.70
18101;DHT22;9177;49.156;8.142;2023-04-15T07:48:38;20.30;86.60
18101;DHT22;9177;49.156;8.142;2023-04-15T07:51:06;20.40;86.50
18101;DHT22;9177;49.156;8.142;2023-04-15T07:53:33;20.40;86.40
18101;DHT22;9177;49.156;8.142;2023-04-15T07:56:00;20.40;86.40
18101;DHT22;9177;49.156;8.142;2023-04-15T07:58:26;20.40;86.40
18101;DHT22;9177;49.156;8.142;2023-04-15T08:00:55;20.40;86.40
18101;DHT22;9177;49.156;8.142;2023-04-15T08:03:23;20.40;86.40
18101;DHT22;9177;49.156;8.142;2023-04-15T08:05:50;20.40;86.40
18101;DHT22;9177;49.156;8.142;2023-04-15T08:08:17;20.40;86.40
18101;DHT22;9177;49.156;8.142;2023-04-15T08:10:44;20.40;86.40
18101;DHT22;9177;49.156;8.142;2023-04-15T08:13:11;20.40;86.40
18101;DHT22;9177;49.156;8.142;2023-04-15T08:15:38;20.40;86.40
18101;DHT22;9177;49.156;8.142;2023-04-15T08:18:06;20.40;86.60
18101;DHT22;9177;49.156;8.142;2023-04-15T08:20:33;20.30;86.60
18101;DHT22;9177;49.156;8.142;2023-04-15T08:23:00;20.30;86.70
18101;DHT22;9177;49.156;8.142;2023-04-15T08:25:27;20.20;86.70
18101;DHT22;9177;49.156;8.142;2023-04-15T08:27:55;20.20;86.60
18101;DHT22;9177;49.156;8.142;2023-04-15T08:30:22;20.10;86.50
18101;DHT22;9177;49.156;8.142;2023-04-15T08:32:49;20.10;87.20
18101;DHT22;9177;49.156;8.142;2023-04-15T08:35:18;20.10;86.20
18101;DHT22;9177;49.156;8.142;2023-04-15T08:37:45;20.10;85.90
18101;DHT22;9177;49.156;8.142;2023-04-15T08:40:11;20.10;85.70
18101;DHT22;9177;49.156;8.142;2023-04-15T08:42:43;20.10;85.40
18101;DHT22;9177;49.156;8.142;2023-04-15T08:45:10;20.20;85.30
18101;DHT22;9177;49.156;8.142;2023-04-15T08:47:37;20.20;84.80
18101;DHT22;9177;49.156;8.142;2023-04-15T08:50:08;20.30;84.60
18101;DHT22;9177;49.156;8.142;2023-04-15T08:52:38;20.40;84.50
18101;DHT22;9177;49.156;8.142;2023-04-15T08:55:07;20.40;84.30
18101;DHT22;9177;49.156;8.142;2023-04-15T08:57:36;20.50;84.30
18101;DHT22;9177;49.156;8.142;2023-04-15T09:00:05;20.50;84.30
18101;DHT22;9177;49.156;8.142;2023-04-15T09:02:34;20.60;84.30
18101;DHT22;9177;49.156;8.142;2023-04-15T09:05:01;20.60;84.10
18101;DHT22;9177;49.156;8.142;2023-04-15T09:07:29;20.70;84.10
18101;DHT22;9177;49.156;8.142;2023-04-15T09:09:57;20.70;83.80
18101;DHT22;9177;49.156;8.142;2023-04-15T09:12:24;20.80;83.70
18101;DHT22;9177;49.156;8.142;2023-04-15T09:14:51;20.80;83.70
18101;DHT22;9177;49.156;8.142;2023-04-15T09:17:19;20.80;83.60
18101;DHT22;9177;49.156;8.142;2023-04-15T09:19:47;20.80;83.60
18101;DHT22;9177;49.156;8.142;2023-04-15T09:22:14;20.90;83.70
18101;DHT22;9177;49.156;8.142;2023-04-15T09:24:41;20.90;83.60
18101;DHT22;9177;49.156;8.142;2023-04-15T09:27:09;20.90;83.60
18101;DHT22;9177;49.156;8.142;2023-04-15T09:29:40;20.90;83.60
18101;DHT22;9177;49.156;8.142;2023-04-15T09:32:11;20.90;83.70
18101;DHT22;9177;49.156;8.142;2023-04-15T09:34:39;20.90;83.90
18101;DHT22;9177;49.156;8.142;2023-04-15T09:37:05;20.90;84.10
18101;DHT22;9177;49.156;8.142;2023-04-15T09:39:45;20.80;84.20
18101;DHT22;9177;49.156;8.142;2023-04-15T09:42:14;20.80;84.30
18101;DHT22;9177;49.156;8.142;2023-04-15T09:44:42;20.80;84.40
18101;DHT22;9177;49.156;8.142;2023-04-15T09:47:09;20.80;84.60
18101;DHT22;9177;49.156;8.142;2023-04-15T09:49:55;20.70;84.70
18101;DHT22;9177;49.156;8.142;2023-04-15T09:52:22;20.70;84.80
18101;DHT22;9177;49.156;8.142;2023-04-15T09:54:52;20.70;85.00
18101;DHT22;9177;49.156;8.142;2023-04-15T09:57:22;20.70;85.90
18101;DHT22;9177;49.156;8.142;2023-04-15T09:59:49;20.70;85.30
18101;DHT22;9177;49.156;8.142;2023-04-15T10:02:17;20.70;85.40
18101;DHT22;9177;49.156;8.142;2023-04-15T10:04:47;20.70;85.60
18101;DHT22;9177;49.156;8.142;2023-04-15T10:07:14;20.70;85.80
18101;DHT22;9177;49.156;8.142;2023-04-15T10:09:44;20.70;85.90
18101;DHT22;9177;49.156;8.142;2023-04-15T10:12:12;20.70;86.00
18101;DHT22;9177;49.156;8.142;2023-04-15T10:14:41;20.70;86.20
18101;DHT22;9177;49.156;8.142;2023-04-15T10:17:10;20.70;86.40
18101;DHT22;9177;49.156;8.142;2023-04-15T10:19:38;20.60;86.40
18101;DHT22;9177;49.156;8.142;2023-04-15T10:22:05;20.60;86.50
18101;DHT22;9177;49.156;8.142;2023-04-15T10:24:33;20.60;86.60
18101;DHT22;9177;49.156;8.142;2023-04-15T10:27:02;20.60;86.80
18101;DHT22;9177;49.156;8.142;2023-04-15T10:29:29;20.60;86.90
18101;DHT22;9177;49.156;8.142;2023-04-15T10:31:59;20.60;87.00
18101;DHT22;9177;49.156;8.142;2023-04-15T10:34:28;20.60;87.00
18101;DHT22;9177;49.156;8.142;2023-04-15T10:36:55;20.60;87.10
18101;DHT22;9177;49.156;8.142;2023-04-15T10:39:38;20.60;87.20
18101;DHT22;9177;49.156;8.142;2023-04-15T10:42:06;20.60;87.10
18101;DHT22;9177;49.156;8.142;2023-04-15T10:44:35;20.70;87.10
18101;DHT22;9177;49.156;8.142;2023-04-15T10:47:06;20.70;87.00
18101;DHT22;9177;49.156;8.142;2023-04-15T10:49:42;20.70;86.90
18101;DHT22;9177;49.156;8.142;2023-04-15T10:52:11;20.60;86.90
18101;DHT22;9177;49.156;8.142;2023-04-15T10:54:38;20.70;86.90
18101;DHT22;9177;49.156;8.142;2023-04-15T10:57:13;20.70;86.90
18101;DHT22;9177;49.156;8.142;2023-04-15T11:00:02;20.70;86.80
18101;DHT22;9177;49.156;8.142;2023-04-15T11:02:43;20.70;86.70
18101;DHT22;9177;49.156;8.142;2023-04-15T11:05:11;20.80;86.50
18101;DHT22;9177;49.156;8.142;2023-04-15T11:07:47;20.80;86.40
18101;DHT22;9177;49.156;8.142;2023-04-15T11:13:25;20.80;86.30
18101;DHT22;9177;49.156;8.142;2023-04-15T11:15:59;20.80;86.60
18101;DHT22;9177;49.156;8.142;2023-04-15T11:18:29;20.80;86.30
18101;DHT22;9177;49.156;8.142;2023-04-15T11:20:58;20.80;86.30
18101;DHT22;9177;49.156;8.142;2023-04-15T11:23:34;20.80;86.20
18101;DHT22;9177;49.156;8.142;2023-04-15T11:26:03;20.80;86.20
18101;DHT22;9177;49.156;8.142;2023-04-15T11:28:34;20.80;86.40
18101;DHT22;9177;49.156;8.142;2023-04-15T11:31:09;20.80;87.00
18101;DHT22;9177;49.156;8.142;2023-04-15T11:33:43;20.80;86.30
18101;DHT22;9177;49.156;8.142;2023-04-15T11:36:10;20.80;86.20
18101;DHT22;9177;49.156;8.142;2023-04-15T11:38:41;20.80;86.50
18101;DHT22;9177;49.156;8.142;2023-04-15T11:41:08;20.80;86.10
18101;DHT22;9177;49.156;8.142;2023-04-15T11:43:35;20.70;85.80
18101;DHT22;9177;49.156;8.142;2023-04-15T11:46:02;20.20;85.50
18101;DHT22;9177;49.156;8.142;2023-04-15T11:48:31;19.80;86.40
18101;DHT22;9177;49.156;8.142;2023-04-15T11:51:01;19.60;87.30
18101;DHT22;9177;49.156;8.142;2023-04-15T11:53:36;19.70;86.80
18101;DHT22;9177;49.156;8.142;2023-04-15T11:56:04;19.60;86.20
18101;DHT22;9177;49.156;8.142;2023-04-15T11:58:34;19.70;86.20
18101;DHT22;9177;49.156;8.142;2023-04-15T12:01:01;19.70;86.00
18101;DHT22;9177;49.156;8.142;2023-04-15T12:03:30;19.70;86.20
18101;DHT22;9177;49.156;8.142;2023-04-15T12:06:11;19.70;86.40
18101;DHT22;9177;49.156;8.142;2023-04-15T12:08:58;19.90;87.10
18101;DHT22;9177;49.156;8.142;2023-04-15T12:11:43;19.90;86.60
18101;DHT22;9177;49.156;8.142;2023-04-15T12:14:23;19.70;87.10
18101;DHT22;9177;49.156;8.142;2023-04-15T12:16:55;19.80;86.70
18101;DHT22;9177;49.156;8.142;2023-04-15T12:19:24;19.90;86.20
18101;DHT22;9177;49.156;8.142;2023-04-15T12:21:58;20.00;86.10
18101;DHT22;9177;49.156;8.142;2023-04-15T12:24:26;20.00;85.90
18101;DHT22;9177;49.156;8.142;2023-04-15T12:26:54;20.10;86.00
18101;DHT22;9177;49.156;8.142;2023-04-15T12:29:24;20.10;86.30
18101;DHT22;9177;49.156;8.142;2023-04-15T12:31:53;20.10;85.70
18101;DHT22;9177;49.156;8.142;2023-04-15T12:34:26;20.00;85.80
18101;DHT22;9177;49.156;8.142;2023-04-15T12:36:56;20.10;85.50
18101;DHT22;9177;49.156;8.142;2023-04-15T12:39:24;20.00;85.30
18101;DHT22;9177;49.156;8.142;2023-04-15T12:41:53;20.00;85.40
18101;DHT22;9177;49.156;8.142;2023-04-15T12:44:22;19.90;85.50
18101;DHT22;9177;49.156;8.142;2023-04-15T12:46:49;20.00;85.60
18101;DHT22;9177;49.156;8.142;2023-04-15T12:49:17;20.00;85.50
18101;DHT22;9177;49.156;8.142;2023-04-15T12:51:45;20.00;85.40
18101;DHT22;9177;49.156;8.142;2023-04-15T12:54:14;19.90;86.00
18101;DHT22;9177;49.156;8.142;2023-04-15T12:56:41;20.00;85.90
18101;DHT22;9177;49.156;8.142;2023-04-15T12:59:08;20.00;85.50
18101;DHT22;9177;49.156;8.142;2023-04-15T13:01:35;20.00;85.30
18101;DHT22;9177;49.156;8.142;2023-04-15T13:04:03;20.10;85.00
18101;DHT22;9177;49.156;8.142;2023-04-15T13:06:30;20.30;84.80
18101;DHT22;9177;49.156;8.142;2023-04-15T13:08:58;20.50;85.70
18101;DHT22;9177;49.156;8.142;2023-04-15T13:11:27;20.60;85.30
18101;DHT22;9177;49.156;8.142;2023-04-15T13:13:55;20.70;85.10
18101;DHT22;9177;49.156;8.142;2023-04-15T13:16:23;20.80;85.40
18101;DHT22;9177;49.156;8.142;2023-04-15T13:18:50;20.90;85.60
18101;DHT22;9177;49.156;8.142;2023-04-15T13:21:17;21.00;85.70
18101;DHT22;9177;49.156;8.142;2023-04-15T13:23:44;21.10;85.90
18101;DHT22;9177;49.156;8.142;2023-04-15T13:26:11;21.20;86.10
18101;DHT22;9177;49.156;8.142;2023-04-15T13:28:39;21.10;86.10
18101;DHT22;9177;49.156;8.142;2023-04-15T13:31:06;21.10;86.30
18101;DHT22;9177;49.156;8.142;2023-04-15T13:33:33;21.10;86.40
18101;DHT22;9177;49.156;8.142;2023-04-15T13:36:00;21.10;86.80
18101;DHT22;9177;49.156;8.142;2023-04-15T13:38:28;21.10;87.00
18101;DHT22;9177;49.156;8.142;2023-04-15T13:40:54;21.20;86.60
18101;DHT22;9177;49.156;8.142;2023-04-15T13:43:21;21.20;86.60
18101;DHT22;9177;49.156;8.142;2023-04-15T13:45:49;21.30;87.00
18101;DHT22;9177;49.156;8.142;2023-04-15T13:48:16;21.30;87.00
18101;DHT22;9177;49.156;8.142;2023-04-15T13:50:43;21.30;86.70
18101;DHT22;9177;49.156;8.142;2023-04-15T13:53:10;21.20;86.70
18101;DHT22;9177;49.156;8.142;2023-04-15T13:55:38;21.20;87.00
18101;DHT22;9177;49.156;8.142;2023-04-15T13:58:07;21.20;87.30
18101;DHT22;9177;49.156;8.142;2023-04-15T14:00:34;21.10;87.30
18101;DHT22;9177;49.156;8.142;2023-04-15T14:03:02;21.20;87.80
18101;DHT22;9177;49.156;8.142;2023-04-15T14:05:29;21.20;87.60
18101;DHT22;9177;49.156;8.142;2023-04-15T14:07:56;21.10;87.20
18101;DHT22;9177;49.156;8.142;2023-04-15T14:10:27;21.10;87.10
18101;DHT22;9177;49.156;8.142;2023-04-15T14:12:54;21.00;87.10
18101;DHT22;9177;49.156;8.142;2023-04-15T14:15:21;20.90;87.60
18101;DHT22;9177;49.156;8.142;2023-04-15T14:17:48;20.90;87.10
18101;DHT22;9177;49.156;8.142;2023-04-15T14:20:16;20.80;87.40
18101;DHT22;9177;49.156;8.142;2023-04-15T14:22:43;20.80;87.30
18101;DHT22;9177;49.156;8.142;2023-04-15T14:25:10;20.80;87.50
18101;DHT22;9177;49.156;8.142;2023-04-15T14:27:37;20.80;87.40
18101;DHT22;9177;49.156;8.142;2023-04-15T14:30:05;20.80;87.10
18101;DHT22;9177;49.156;8.142;2023-04-15T14:32:32;20.80;87.00
18101;DHT22;9177;49.156;8.142;2023-04-15T14:34:59;20.80;87.10
18101;DHT22;9177;49.156;8.142;2023-04-15T14:37:30;20.80;87.10
18101;DHT22;9177;49.156;8.142;2023-04-15T14:39:57;20.80;86.30
18101;DHT22;9177;49.156;8.142;2023-04-15T14:42:24;20.80;86.40
18101;DHT22;9177;49.156;8.142;2023-04-15T14:44:51;20.80;86.30
18101;DHT22;9177;49.156;8.142;2023-04-15T14:47:18;20.80;86.10
18101;DHT22;9177;49.156;8.142;2023-04-15T14:49:45;20.80;86.30
18101;DHT22;9177;49.156;8.142;2023-04-15T14:52:12;20.80;86.30
18101;DHT22;9177;49.156;8.142;2023-04-15T14:54:40;20.70;86.20
18101;DHT22;9177;49.156;8.142;2023-04-15T14:57:07;20.70;86.40
18101;DHT22;9177;49.156;8.142;2023-04-15T14:59:36;20.70;86.30
18101;DHT22;9177;49.156;8.142;2023-04-15T15:02:03;20.70;86.20
18101;DHT22;9177;49.156;8.142;2023-04-15T15:04:30;20.60;86.10
18101;DHT22;9177;49.156;8.142;2023-04-15T15:06:58;20.40;86.20
18101;DHT22;9177;49.156;8.142;2023-04-15T15:09:25;20.20;86.40
18101;DHT22;9177;49.156;8.142;2023-04-15T15:11:54;20.10;86.00
18101;DHT22;9177;49.156;8.142;2023-04-15T15:14:21;20.00;86.50
18101;DHT22;9177;49.156;8.142;2023-04-15T15:16:48;20.00;87.00
18101;DHT22;9177;49.156;8.142;2023-04-15T15:19:15;20.00;86.30
18101;DHT22;9177;49.156;8.142;2023-04-15T15:21:42;20.00;86.20
18101;DHT22;9177;49.156;8.142;2023-04-15T15:24:09;19.90;85.90
18101;DHT22;9177;49.156;8.142;2023-04-15T15:26:36;20.00;85.70
18101;DHT22;9177;49.156;8.142;2023-04-15T15:29:06;20.00;86.00
18101;DHT22;9177;49.156;8.142;2023-04-15T15:31:33;20.00;85.50
18101;DHT22;9177;49.156;8.142;2023-04-15T15:34:00;20.00;85.30
18101;DHT22;9177;49.156;8.142;2023-04-15T15:36:29;20.00;85.70
18101;DHT22;9177;49.156;8.142;2023-04-15T15:38:56;20.00;85.90
18101;DHT22;9177;49.156;8.142;2023-04-15T15:41:23;20.00;85.60
18101;DHT22;9177;49.156;8.142;2023-04-15T15:43:52;20.00;85.70
18101;DHT22;9177;49.156;8.142;2023-04-15T15:46:20;20.10;85.80
18101;DHT22;9177;49.156;8.142;2023-04-15T15:48:48;20.10;85.80
18101;DHT22;9177;49.156;8.142;2023-04-15T15:51:15;20.10;86.90
18101;DHT22;9177;49.156;8.142;2023-04-15T15:53:42;20.00;87.40